createdAt,value
2022-08-12T00:04:53.695Z,59.78
2022-08-12T00:10:15.451Z,60.69
2022-08-12T00:15:38.025Z,62.00
2022-08-12T00:21:01.332Z,68.22
2022-08-12T00:26:24.629Z,63.73
2022-08-12T00:31:46.725Z,57.71
2022-08-12T00:37:14.592Z,55.87
2022-08-12T00:42:20.198Z,57.69
2022-08-12T00:47:25.892Z,59.37
2022-08-12T00:52:29.406Z,60.11
2022-08-12T00:57:37.495Z,61.50
2022-08-12T01:02:51.816Z,61.89
2022-08-12T01:08:14.565Z,68.80
2022-08-12T01:13:20.358Z,64.63
2022-08-12T01:18:31.730Z,59.22
2022-08-12T01:24:00.640Z,55.81
2022-08-12T01:29:35.329Z,57.74
2022-08-12T01:34:41.652Z,59.51
2022-08-12T01:40:35.139Z,60.81
2022-08-12T01:45:24.827Z,61.62
2022-08-12T01:51:40.746Z,66.63
2022-08-12T01:56:59.299Z,61.55
2022-08-12T02:02:09.457Z,55.98
2022-08-12T02:08:05.429Z,56.39
2022-08-12T02:13:41.994Z,58.24
2022-08-12T02:19:27.841Z,60.08
2022-08-12T02:24:34.404Z,61.47
2022-08-12T02:29:39.307Z,67.27
2022-08-12T02:34:45.026Z,63.05
2022-08-12T02:39:54.566Z,56.88
2022-08-12T02:45:01.167Z,56.24
2022-08-12T02:50:05.977Z,58.00
2022-08-12T02:55:28.575Z,59.31
2022-08-12T03:00:40.054Z,60.84
2022-08-12T03:06:00.381Z,66.93
2022-08-12T03:11:38.964Z,63.39
2022-08-12T03:16:55.132Z,57.11
2022-08-12T03:22:13.596Z,56.77
2022-08-12T03:27:17.375Z,58.60
2022-08-12T03:32:35.119Z,60.15
2022-08-12T03:37:41.771Z,61.62
2022-08-12T03:43:06.853Z,67.29
2022-08-12T03:48:34.494Z,62.75
2022-08-12T03:53:56.581Z,55.43
2022-08-12T03:59:21.175Z,56.51
2022-08-12T04:04:35.613Z,58.52
2022-08-12T04:09:42.969Z,60.04
2022-08-12T04:14:47.039Z,61.45
2022-08-12T04:19:50.636Z,66.95
2022-08-12T04:24:54.567Z,63.14
2022-08-12T04:30:20.997Z,57.33
2022-08-12T04:35:21.737Z,56.63
2022-08-12T04:40:28.055Z,58.88
2022-08-12T04:45:34.900Z,60.41
2022-08-12T04:50:39.265Z,61.61
2022-08-12T04:55:43.237Z,57.97
2022-08-12T05:00:46.250Z,52.36
2022-08-12T05:05:49.142Z,47.51
2022-08-12T05:10:53.406Z,43.98
2022-08-12T05:16:05.003Z,40.79
2022-08-12T05:21:09.985Z,38.66
2022-08-12T05:26:13.343Z,37.00
2022-08-12T05:31:47.670Z,35.81
2022-08-12T05:36:44.356Z,35.83
2022-08-12T05:41:47.364Z,37.80
2022-08-12T05:46:50.373Z,40.16
2022-08-12T05:51:53.702Z,42.77
2022-08-12T05:56:57.192Z,44.55
2022-08-12T06:02:09.955Z,46.92
2022-08-12T06:07:37.393Z,49.18
2022-08-12T06:12:37.975Z,50.81
2022-08-12T06:17:41.014Z,52.34
2022-08-12T06:22:45.433Z,53.84
2022-08-12T06:28:06.634Z,55.05
2022-08-12T06:33:22.055Z,56.14
2022-08-12T06:38:27.634Z,57.63
2022-08-12T06:43:31.226Z,58.65
2022-08-12T06:48:59.454Z,59.31
2022-08-12T06:54:03.148Z,59.57
2022-08-12T06:59:06.178Z,60.23
2022-08-12T07:04:33.803Z,60.28
2022-08-12T07:10:06.819Z,60.47
2022-08-12T07:14:58.632Z,60.42
2022-08-12T07:20:04.477Z,60.81
2022-08-12T07:25:27.148Z,60.85
2022-08-12T07:30:35.197Z,61.07
2022-08-12T07:35:48.446Z,60.63
2022-08-12T07:41:02.271Z,61.51
2022-08-12T07:46:07.954Z,65.30
2022-08-12T07:51:12.045Z,61.40
2022-08-12T07:56:31.354Z,54.34
2022-08-12T08:01:38.048Z,55.15
2022-08-12T08:06:43.328Z,56.17
2022-08-12T08:12:04.877Z,57.81
2022-08-12T08:17:07.908Z,58.86
2022-08-12T08:22:10.915Z,60.30
2022-08-12T08:27:13.958Z,61.30
2022-08-12T08:32:17.874Z,61.57
2022-08-12T08:37:21.184Z,65.70
2022-08-12T08:42:40.633Z,61.46
2022-08-12T08:47:48.616Z,55.05
2022-08-12T08:52:51.599Z,55.53
2022-08-12T08:57:55.039Z,56.52
2022-08-12T09:02:59.923Z,58.44
2022-08-12T09:08:14.221Z,60.44
2022-08-12T09:13:29.116Z,60.76
2022-08-12T09:24:20.036Z,60.28
2022-08-12T09:30:10.308Z,61.28
2022-08-12T09:34:50.774Z,61.73
2022-08-12T09:40:05.801Z,61.87
2022-08-12T09:46:05.471Z,64.03
2022-08-12T09:50:52.037Z,61.97
2022-08-12T09:56:07.200Z,55.33
2022-08-12T10:01:23.441Z,53.71
2022-08-12T10:06:32.195Z,54.82
2022-08-12T10:12:12.095Z,55.78
2022-08-12T10:17:16.186Z,56.51
2022-08-12T10:22:38.851Z,57.54
2022-08-12T10:28:04.915Z,57.95
2022-08-12T10:33:17.971Z,58.35
2022-08-12T10:38:34.509Z,58.78
2022-08-12T10:43:55.899Z,59.06
2022-08-12T10:49:06.661Z,59.49
2022-08-12T10:54:28.195Z,59.28
2022-08-12T11:00:29.487Z,59.83
2022-08-12T11:05:00.413Z,60.00
2022-08-12T11:10:26.388Z,60.24
2022-08-12T11:16:02.688Z,60.26
2022-08-12T11:20:54.495Z,60.18
2022-08-12T11:26:05.483Z,60.34
2022-08-12T11:31:13.948Z,60.54
2022-08-12T11:36:21.861Z,60.24
2022-08-12T11:41:31.246Z,60.34
2022-08-12T11:46:39.481Z,60.40
2022-08-12T11:51:42.529Z,60.51
2022-08-12T11:56:52.443Z,60.55
2022-08-12T12:02:05.124Z,60.96
2022-08-12T12:07:11.240Z,61.19
2022-08-12T12:12:15.478Z,61.23
2022-08-12T12:17:18.488Z,61.45
2022-08-12T12:22:32.014Z,61.50
2022-08-12T12:28:05.831Z,61.53
2022-08-12T12:33:18.099Z,61.48
2022-08-12T12:38:25.183Z,61.85
2022-08-12T12:43:42.475Z,62.05
2022-08-12T12:48:46.310Z,66.66
2022-08-12T12:54:08.368Z,64.06
2022-08-12T12:59:54.624Z,56.79
2022-08-12T13:04:37.389Z,55.81
2022-08-12T13:09:40.927Z,56.69
2022-08-12T13:14:50.201Z,57.95
2022-08-12T13:19:54.808Z,59.08
2022-08-12T13:25:01.873Z,60.46
2022-08-12T13:30:12.577Z,61.59
2022-08-12T13:35:20.036Z,66.00
2022-08-12T13:40:40.182Z,63.43
2022-08-12T13:45:43.769Z,57.30
2022-08-12T13:50:47.801Z,56.38
2022-08-12T13:56:01.550Z,58.38
2022-08-12T14:01:06.127Z,59.74
2022-08-12T14:06:12.403Z,60.91
2022-08-12T14:11:25.282Z,65.14
2022-08-12T14:16:48.175Z,63.68
2022-08-12T14:22:01.586Z,59.17
2022-08-12T14:27:09.187Z,55.39
2022-08-12T14:32:16.546Z,57.63
2022-08-12T14:37:58.197Z,59.60
2022-08-12T14:42:46.903Z,61.16
2022-08-12T14:47:58.588Z,64.55
2022-08-12T14:58:27.234Z,55.12
2022-08-12T15:03:52.255Z,55.72
2022-08-12T15:08:57.276Z,56.81
2022-08-12T15:14:00.835Z,58.81
2022-08-12T15:20:12.121Z,60.18
2022-08-12T15:24:33.628Z,61.37
2022-08-12T15:29:37.687Z,66.68
2022-08-12T15:34:40.744Z,64.43
2022-08-12T15:39:55.202Z,60.14
2022-08-12T15:45:08.739Z,56.46
2022-08-12T15:50:21.595Z,57.65
2022-08-12T15:55:31.367Z,59.90
2022-08-12T16:00:40.048Z,61.71
2022-08-12T16:06:12.576Z,67.02
2022-08-12T16:11:15.551Z,64.51
2022-08-12T16:16:23.575Z,59.47
2022-08-12T16:21:52.972Z,56.99
2022-08-12T16:26:55.376Z,59.15
2022-08-12T16:31:59.690Z,60.63
2022-08-12T16:37:13.523Z,65.74
2022-08-12T16:42:20.903Z,63.47
2022-08-12T16:47:23.928Z,59.91
2022-08-12T16:52:30.489Z,56.69
2022-08-12T16:57:34.825Z,58.33
2022-08-12T17:02:40.592Z,60.23
2022-08-12T17:07:52.102Z,62.59
2022-08-12T17:12:56.032Z,68.28
2022-08-12T17:18:15.211Z,63.84
2022-08-12T17:23:48.721Z,60.47
2022-08-12T17:29:00.864Z,57.29
2022-08-12T17:34:17.697Z,59.40
2022-08-12T17:39:23.588Z,61.46
2022-08-12T17:44:26.733Z,68.48
2022-08-12T17:50:02.961Z,65.48
2022-08-12T17:55:02.918Z,62.24
2022-08-12T18:00:18.329Z,60.08
2022-08-12T18:05:23.010Z,57.34
2022-08-12T18:10:45.249Z,58.83
2022-08-12T18:16:06.762Z,61.18
2022-08-12T18:21:12.002Z,67.12
2022-08-12T18:26:22.220Z,64.17
2022-08-12T18:31:44.679Z,61.15
2022-08-12T18:36:59.803Z,58.28
2022-08-12T18:42:24.625Z,58.80
2022-08-12T18:47:50.273Z,61.36
2022-08-12T18:53:07.911Z,66.75
2022-08-12T18:58:59.397Z,62.91
2022-08-12T19:04:06.740Z,59.79
2022-08-12T19:09:57.400Z,57.13
2022-08-12T19:15:05.091Z,59.74
2022-08-12T19:20:17.081Z,62.33
2022-08-12T19:25:23.781Z,67.80
2022-08-12T19:31:05.411Z,63.21
2022-08-12T19:36:25.120Z,60.37
2022-08-12T19:41:42.550Z,57.64
2022-08-12T19:46:53.928Z,59.07
2022-08-12T19:51:57.052Z,62.18
2022-08-12T19:57:01.670Z,67.12
2022-08-12T20:02:11.744Z,63.23
2022-08-12T20:07:23.176Z,60.44
2022-08-12T20:12:34.525Z,57.61
2022-08-12T20:17:50.997Z,59.58
2022-08-12T20:22:56.016Z,62.39
2022-08-12T20:28:04.688Z,66.78
2022-08-12T20:33:18.703Z,62.28
2022-08-12T20:38:27.999Z,59.59
2022-08-12T20:43:35.882Z,57.28
2022-08-12T20:48:44.377Z,59.88
2022-08-12T20:53:57.776Z,65.14
2022-08-12T20:59:19.749Z,63.54
2022-08-12T21:04:43.936Z,61.01
2022-08-12T21:09:50.168Z,58.39
2022-08-12T21:15:17.363Z,58.75
2022-08-12T21:20:24.262Z,61.44
2022-08-12T21:25:45.472Z,67.53
2022-08-12T21:30:55.152Z,64.48
2022-08-12T21:36:14.365Z,62.05
2022-08-12T21:41:35.690Z,60.84
2022-08-12T21:46:47.787Z,60.20
2022-08-12T21:51:57.027Z,59.83
2022-08-12T21:57:00.063Z,59.57
2022-08-12T22:02:02.941Z,58.07
2022-08-12T22:07:07.053Z,60.52
2022-08-12T22:12:28.615Z,66.47
2022-08-12T22:17:49.886Z,64.54
2022-08-12T22:23:00.422Z,62.25
2022-08-12T22:28:24.611Z,61.10
2022-08-12T22:33:28.007Z,59.57
2022-08-12T22:38:31.720Z,57.74
2022-08-12T22:44:00.344Z,60.22
2022-08-12T22:49:06.678Z,65.75
2022-08-12T22:54:35.867Z,62.86
2022-08-12T22:59:51.264Z,60.29
2022-08-12T23:04:58.962Z,58.08
2022-08-12T23:10:02.289Z,59.89
2022-08-12T23:15:06.516Z,62.71
2022-08-12T23:20:13.096Z,67.12
2022-08-12T23:25:21.162Z,63.36
2022-08-12T23:30:31.801Z,61.11
2022-08-12T23:35:53.832Z,59.65
2022-08-12T23:41:03.964Z,57.79
2022-08-12T23:46:09.450Z,60.44
2022-08-12T23:51:23.641Z,66.01
2022-08-12T23:56:33.656Z,63.19
